Decoded Metar for LFOK (CHALONS in FRANCE) (IATA:N/A) | Meteo·Mobile Aviation Weather
aviador You're here:

LFOK Decoded Metar

CHALONS in FRANCE
Report Time2018-08-21 07:30:00
UTC Time2018-08-21 07:51:39
Flight Rules vfr VFR
Wind020° at 04 kt
W.Decomp.*RWY 10: 0.7 kt HW 3.9 kt LCW
W.Rank020° ranks 8
Current wind is below 020° avg. (6.3)
Visibility9999 m
Phenomena:N/A
Clouds:N/A
Expected CloudBase > 1,200 ft AGL from Temp-Dew spread
CeilingNone
Temp19°C (ISA +5)
Dew Point16°C (83% RH)
QNH1021 hPa
Density Alt1,099 ft
Elevation531 ft
Report Wrong Elevation
Raw Report
LFOK 210730Z AUTO 02004KT 350V050 CAVOK 19/16 Q1021 NOSIG=

Extra information for LFOK:More info

Metar Taf Metar & Taf Last 4 Metars F.Rules Stats Wind Profile Meteogram Temp Stats Airport Information Weather charts Add Link Nearby VenuesMetar ALERT Operation Metar Decoded Social comments